Austin, Arkansas
Current Conditions -  °F | °C
As of 8:58 AM on Thursday 23 Oct 2014 (Local Time) from KLRF Reporting Station
Few Clouds Few Clouds  
Wind Chill: 47°   Ceiling: Unl
Heat Index: 49°   Visibility: 8mi
Dew Point: 46°   Wind: 5mph
Humidity: 90%   Direction: 260°W
Pressure: 30.22"   Gusts: NA
Location:  35°N, 91.98°W
Report Text: KLRF 231358Z AUTO 26004KT 8SM FEW190 09/08 A3022 RMK AO2 SLP237 T00920077
Loading
Personal Weather Stations






























Interactive Weather Map
Tropical Storm Tracking
New forecast layout! Learn more

10-Day Weather Forecast

Advertisements
Track Severe Weather on mobile